Terminal Aerodrome Forecast
Issued by NWS Twin Cities, MN

Home | Current Version | Previous Version | Text Only | Print | Product List | Glossary On
Versions: 1 2 3 4 5 6 7 8 9 10 11 12 13 14 15 16 17 18 19 20
572
FTUS43 KMPX 262334
TAFEAU
TAF
KEAU 262334Z 2700/2724 22007KT P6SM SCT018 OVC035
     FM270200 28003KT P6SM SCT020 SCT250
     FM270400 VRB02KT 5SM BR SCT010
      TEMPO 2708/2712 1SM BR MIFG BKN007
     FM271300 03004KT P6SM SCT040=

USA.gov is the U.S. government's official web portal to all federal, state and local government web resources and services.